Terminal Aerodrome Forecast
Issued by NWS

Home | Current Version | Previous Version | Text Only | Print | Product List | Glossary On
Versions: 1 2 3 4 5 6 7 8 9 10 11 12
080
FTUS45 KABQ 301738
TAFGUP
TAF
KGUP 301738Z 3018/3118 23008KT P6SM SCT090 SCT150
     FM302100 25015KT P6SM VCSH BKN100
     FM310200 27006KT P6SM BKN110
     FM310400 VRB04KT P6SM SCT150=

USA.gov is the U.S. government's official web portal to all federal, state and local government web resources and services.